• Join FlightAware (Why Join?)
  • Login
  • US Flag 
08:50PM EST


 

Airport Tracker/Info


-or-


 

Live Flight TrackerFlight Track Log ✈ N839CA ✈ 07-May-2013 ✈ KBUF - KEWR

Flight Track Log - Related Links

Times and Time Zones

All times are in EDT time to prevent confusion due to time zone crossing. See the N839CA flight status page for this flight to view local times or setup timezone preferences in your user account.

Time Position Orientation Groundspeed Altitude Reporting Facility
EDT Latitude Longitude Course Direction KTS MPH feet Rate Location/Type
05:12PM 42.8493 -78.5316 122° Southeast  Level Estimated
05:13PM 42.8363 -78.5032 122° Southeast  Level Estimated
05:14PM 42.8232 -78.4748 122° Southeast  Level Estimated
05:15PM 42.8102 -78.4465 122° Southeast  Level Estimated
05:16PM 42.7971 -78.4181 122° Southeast  Level Estimated
05:17PM 42.7840 -78.3898 122° Southeast  Level Estimated
05:18PM 42.8237 -78.3208 52° Northeast  Level FlightAware Approximate
05:19PM 42.7885 -78.2475 109° East  Level Estimated
05:20PM 42.7533 -78.1742 98° East  Level Estimated
05:21PM 42.7878 -78.1003 58° Northeast  Level FlightAware Approximate
05:22PM 42.7516 -78.0280 95° East  Level Estimated
05:23PM 42.7734 -77.9456 70° East  Level FlightAware Approximate
05:24PM 42.7950 -77.8631 70° East  Level FlightAware Approximate
05:25PM 42.7571 -77.7924 92° East  Level Estimated
05:26PM 42.7658 -77.7057 82° East  Level FlightAware Approximate
05:27PM 42.7744 -77.6189 82° East  Level FlightAware Approximate
05:28PM 42.7830 -77.5321 82° East  Level FlightAware Approximate
05:29PM 42.7915 -77.4453 82° East  Level FlightAware Approximate
05:30PM 42.7999 -77.3585 82° East  Level FlightAware Approximate
05:31PM 42.7582 -77.2918 90° East  Level Estimated
05:32PM 42.7743 -77.2071 75° East  Level FlightAware Approximate
05:33PM 42.7317 -77.1416 122° Southeast  Level Estimated
05:34PM 42.7251 -77.0546 96° East  Level FlightAware Approximate
05:35PM 42.7184 -76.9676 96° East  Level FlightAware Approximate
05:36PM 42.7116 -76.8806 96° East  Level FlightAware Approximate
05:37PM 42.6669 -76.8177 117° Southeast  Level Estimated
05:38PM 42.6222 -76.7550 121° Southeast  Level Estimated
05:39PM 42.5971 -76.6746 113° Southeast  Level FlightAware Approximate
05:40PM 42.5719 -76.5943 113° Southeast  Level FlightAware Approximate
05:41PM 42.5467 -76.5140 113° Southeast  Level FlightAware Approximate
05:42PM 42.5214 -76.4338 113° Southeast  Level FlightAware Approximate
05:43PM 42.4961 -76.3537 113° Southeast  Level FlightAware Approximate
05:44PM 42.4707 -76.2736 113° Southeast  Level FlightAware Approximate
05:45PM 42.4453 -76.1936 113° Southeast  Level FlightAware Approximate
05:46PM 42.4198 -76.1137 113° Southeast  Level FlightAware Approximate
05:47PM 42.3711 -76.0569 122° Southeast  Level Estimated
05:48PM 42.3405 -75.9804 118° Southeast  Level FlightAware Approximate
05:49PM 42.3099 -75.9039 118° Southeast  Level FlightAware Approximate
05:50PM 42.2793 -75.8276 118° Southeast  Level FlightAware Approximate
05:51PM 42.2486 -75.7513 119° Southeast  Level FlightAware Approximate
05:52PM 42.2178 -75.6750 119° Southeast  Level FlightAware Approximate
05:53PM 42.1870 -75.5989 119° Southeast  Level FlightAware Approximate
05:54PM 42.1351 -75.5478 124° Southeast  Level Estimated
05:55PM 42.1082 -75.4691 115° Southeast  Level FlightAware Approximate
05:56PM 42.0555 -75.4195 124° Southeast  Level Estimated
05:57PM 42.0028 -75.3699 112° Southeast  Level Estimated
05:58PM 41.9932 -75.2844 99° East  Level FlightAware Approximate
05:59PM 41.9394 -75.2371 132° Southeast  Level Estimated
06:00PM 41.8856 -75.1899 124° Southeast  Level Estimated
06:01PM 41.8317 -75.1429 112° Southeast  Level Estimated
06:02PM 41.8358 -75.0568 86° East  Level FlightAware Approximate
06:03PM 41.7805 -75.0129 143° Southeast  Level Estimated
06:04PM 41.7251 -74.9692 114° Southeast  Level Estimated
06:05PM 41.6698 -74.9255 120° Southeast  Level Estimated
06:06PM 41.6144 -74.8819 191° South  Level Estimated
06:07PM 41.6151 -74.7959 89° East  Level FlightAware Approximate
06:08PM 41.5579 -74.7565 187° South  Level Estimated
06:09PM 41.5364 -74.7328 141° Southeast  Level FlightAware Approximate
06:10PM 41.5149 -74.7092 141° Southeast  Level FlightAware Approximate
06:11PM 41.4934 -74.6856 141° Southeast  Level FlightAware Approximate
06:12PM 41.4718 -74.6619 141° Southeast  Level FlightAware Approximate
06:12PM 42.9500 -78.7167 198° South 121 139 1,400  Level Buffalo TRACON
06:13PM 41.4503 -74.6384 141° Southeast  Level FlightAware Approximate
06:13PM 42.9667 -78.7000 36° Northeast 127 146 2,300  Level Buffalo TRACON
06:14PM 41.4287 -74.6148 141° Southeast  Level FlightAware Approximate
06:14PM 42.9500 -78.6333 109° East 167 192 4,000  Level Buffalo TRACON
06:15PM 41.4072 -74.5912 141° Southeast  Level FlightAware Approximate
06:15PM 42.9500 -78.5500 90° East 165 190 5,900  Level Buffalo TRACON
06:16PM 41.3887 -74.5882 198° South  Level FlightAware Approximate
06:16PM 42.9375 -78.4989 108° East 201 231 7,100  Level Cleveland Center
06:17PM 41.3556 -74.6024 198° South  Level FlightAware Approximate
06:17PM 42.9300 -78.4311 99° East 195 224 8,400  Level Cleveland Center
06:18PM 42.9181 -78.3519 102° East 190 219 9,900 840 Climbing Cleveland Center
06:19PM 42.9081 -78.2703 99° East 203 234 10,100 660 Climbing Cleveland Center
06:20PM 42.8981 -78.1883 99° East 215 247 11,300 1,200 Climbing Cleveland Center
06:21PM 42.8858 -78.1039 101° East 220 253 12,500 1,080 Climbing Cleveland Center
06:22PM 42.8758 -78.0219 99° East 220 253 13,500 1,020 Climbing Cleveland Center
06:23PM 42.8656 -77.9431 100° East 220 253 14,600 780 Climbing Cleveland Center
06:24PM 42.8533 -77.8614 102° East 220 253 15,100 240 Climbing Cleveland Center
06:25PM 42.8408 -77.7714 101° East 225 259 15,100  Level Cleveland Center
06:27PM 42.8358 -77.6169 92° East 250 288 15,100 -60 Level New York Center
06:28PM 42.8331 -77.5178 92° East 256 295 15,000 -60 Descending New York Center
06:29PM 42.8303 -77.4214 92° East 256 295 15,000  Level New York Center
06:30PM 42.8294 -77.3225 91° East 256 295 15,000  Level New York Center
06:31PM 42.8264 -77.2258 92° East 256 295 15,000  Level New York Center
06:32PM 42.8253 -77.1325 91° East 256 295 15,000  Level New York Center
06:33PM 42.8242 -77.0336 91° East 256 295 15,000  Level New York Center
06:34PM 42.8039 -76.9439 107° East 256 295 15,000  Level New York Center
06:35PM 42.7683 -76.8644 121° Southeast 249 287 15,000  Level New York Center
06:36PM 42.7331 -76.7792 119° Southeast 249 287 15,000  Level New York Center
06:37PM 42.6956 -76.6967 122° Southeast 254 292 15,000  Level New York Center
06:37PM 42.6744 -76.6542 124° Southeast 260 299 15,000  Level Boston Center
06:38PM 42.6417 -76.5814 121° Southeast 253 291 15,000  Level Boston Center
06:39PM 42.6050 -76.4997 121° Southeast 253 291 15,000  Level Boston Center
06:40PM 42.5683 -76.4183 121° Southeast 253 291 15,000  Level Boston Center
06:41PM 42.5317 -76.3372 122° Southeast 253 291 15,000  Level Boston Center
06:42PM 42.4947 -76.2589 123° Southeast 253 291 15,000  Level Boston Center
06:43PM 42.4636 -76.1836 119° Southeast 253 291 15,000  Level Boston Center
06:44PM 42.4247 -76.1025 123° Southeast 253 291 15,000  Level Boston Center
06:45PM 42.3878 -76.0217 122° Southeast 263 303 15,000  Level Boston Center
06:46PM 42.3528 -75.9408 120° Southeast 254 292 15,000  Level Boston Center
06:47PM 42.3156 -75.8603 122° Southeast 254 292 15,000  Level Boston Center
06:48PM 42.2783 -75.7767 121° Southeast 254 292 15,000  Level Boston Center
06:49PM 42.2411 -75.6964 122° Southeast 254 292 15,000  Level Boston Center
06:50PM 42.2039 -75.6158 122° Southeast 254 292 15,000  Level Boston Center
06:51PM 42.1664 -75.5356 122° Southeast 254 292 15,000  Level Boston Center
06:52PM 42.1289 -75.4553 122° Southeast 254 292 15,000  Level Boston Center
06:53PM 42.0914 -75.3750 122° Southeast 259 298 15,000  Level Boston Center
06:54PM 42.0561 -75.2922 120° Southeast 259 298 15,000  Level Boston Center
06:55PM 42.0247 -75.2069 116° Southeast 259 298 15,100  Climbing Boston Center
06:56PM 41.9914 -75.1244 119° Southeast 254 292 15,100  Level Boston Center
06:57PM 41.9561 -75.0308 117° Southeast 254 292 15,100  Level Boston Center
06:58PM 41.9286 -74.9572 117° Southeast 249 287 15,100 -420 Level Boston Center
06:59PM 41.8911 -74.8608 118° Southeast 254 292 14,300 -1,020 Descending Boston Center
07:00PM 41.8594 -74.7789 117° Southeast 267 307 13,100 -1,620 Descending Boston Center
07:01PM 41.8047 -74.6961 132° Southeast 267 307 11,100 -1,800 Descending Boston Center
07:02PM 41.7494 -74.6522 149° Southeast 262 302 9,500 -1,620 Descending Boston Center
07:03PM 41.6817 -74.5944 148° Southeast 262 302 7,900 -1,500 Descending Boston Center
07:04PM 41.6261 -74.5508 150° Southeast 262 302 6,500 -960 Descending Boston Center
07:05PM 41.5511 -74.5594 185° South 239 275 6,000 -300 Descending Boston Center
07:06PM 41.4883 -74.5739 190° South 252 290 6,000  Level Boston Center
07:09PM 41.3333 -74.6167 192° South 251 289 6,000 -180 Level New York TRACON
07:10PM 41.2667 -74.5833 159° South 251 289 5,500 -480 Descending New York TRACON
07:11PM 41.2167 -74.5167 135° Southeast 243 280 5,100 -240 Descending New York TRACON
07:12PM 41.1667 -74.4833 153° Southeast 226 260 5,100 -60 Level New York TRACON
07:13PM 41.1167 -74.4500 153° Southeast 230 265 5,000 -60 Descending New York TRACON
07:14PM 41.0833 -74.3833 124° Southeast 222 255 5,000  Level New York TRACON
07:15PM 41.0333 -74.3333 143° Southeast 219 252 5,100 -300 Climbing New York TRACON
07:16PM 41.0000 -74.2667 124° Southeast 222 255 4,500 -540 Descending New York TRACON
07:17PM 40.9500 -74.2167 143° Southeast 217 250 4,100 -240 Descending New York TRACON
07:18PM 40.9167 -74.1500 123° Southeast 214 246 4,100 -480 Level New York TRACON
07:19PM 40.8667 -74.1000 143° Southeast 215 247 3,200 -840 Descending New York TRACON
07:20PM 40.8167 -74.0833 166° South 188 216 2,500 -780 Descending New York TRACON
07:21PM 40.7667 -74.1167 207° Southwest 188 216 1,700 -900 Descending New York TRACON
07:22PM 40.7333 -74.1333 201° Southwest 153 176 800 -900 Descending New York TRACON